Time;durP1;ratioP1;P1;durP2;ratioP2;P2;SDS_P1;SDS_P2;PMS_P1;PMS_P2;Temp;Humidity;BMP_temperature;BMP_pressure;BME280_temperature;BME280_humidity;BME280_pressure;Samples;Min_cycle;Max_cycle;Signal;HPM_P1;HPM_P2
2021/12/21 00:00:10;;;;;;;;;;;;;;;;;;5072017;28;1269;-80
2021/12/21 00:02:36;;;;;;;;;;;;;;;;;;5075117;28;1893;-80
2021/12/21 00:05:02;;;;;;;;;;;;;;;;;;5075498;28;1219;-79
2021/12/21 00:07:27;;;;;;;;;;;;;;;;;;5110343;28;1214;-79
2021/12/21 00:09:52;;;;;;;;;;;;;;;;;;5074441;28;1129;-78
2021/12/21 00:12:19;;;;;;;;;;;;;;;;;;5075724;28;1200;-80
2021/12/21 00:15:08;;;;;;;;;;;;;;;;;;5055242;28;1296;-79
2021/12/21 00:25:27;;;;;;;;;;;;;;;;;;5058446;28;1289;-79
2021/12/21 00:27:52;;;;;;;;;;;;;;;;;;5090722;28;1211;-80
2021/12/21 00:30:18;;;;;;;;;;;;;;;;;;5069679;28;1333;-80
2021/12/21 00:32:44;;;;;;;;;;;;;;;;;;5092060;28;1259;-79
2021/12/21 00:35:10;;;;;;;;;;;;;;;;;;5090798;28;1219;-79
2021/12/21 00:37:38;;;;;;;;;;;;;;;;;;5090667;28;1316;-79
2021/12/21 00:40:05;;;;;;;;;;;;;;;;;;5072037;28;1238;-80
2021/12/21 00:42:30;;;;;;;;;;;;;;;;;;5056841;28;1914;-80
2021/12/21 00:44:55;;;;;;;;;;;;;;;;;;5069214;28;1199;-80
2021/12/21 00:47:21;;;;;;;;;;;;;;;;;;5072162;28;1296;-80
2021/12/21 00:49:48;;;;;;;;;;;;;;;;;;5071876;28;1225;-80
2021/12/21 00:52:13;;;;;;;;;;;;;;;;;;5071733;28;1149;-80
2021/12/21 00:54:39;;;;;;;;;;;;;;;;;;5054554;28;1148;-80
2021/12/21 00:57:06;;;;;;;;;;;;;;;;;;5089292;28;1161;-78
2021/12/21 00:59:32;;;;;;;;;;;;;;;;;;5068088;28;1204;-79
2021/12/21 01:01:57;;;;;;;;;;;;;;;;;;5054565;28;1906;-79
2021/12/21 01:04:28;;;;;;;;;;;;;;;;;;5088504;28;1144;-79
2021/12/21 01:07:06;;;;;;;;;;;;;;;;;;5055803;28;1269;-80
2021/12/21 01:10:04;;;;;;;;;;;;;;;;;;5070614;28;1337;-80
2021/12/21 01:23:23;;;;;;;;;;;;;;;;;;5072412;28;1107;-80
2021/12/21 01:31:15;;;;;;;;;;;;;;;;;;5086673;28;1188;-80
2021/12/21 01:36:25;;;;;;;;;;;;;;;;;;5086677;28;1184;-79
2021/12/21 01:39:15;;;;;;;;;;;;;;;;;;5055173;28;1121;-79
2021/12/21 01:42:10;;;;;;;;;;;;;;;;;;5073132;28;1974;-80
2021/12/21 01:52:02;;;;;;;;;;;;;;;;;;5088815;28;1152;-79
2021/12/21 01:54:28;;;;;;;;;;;;;;;;;;5067117;28;1288;-79
2021/12/21 01:56:54;;;;;;;;;;;;;;;;;;5068592;28;1189;-80
2021/12/21 01:59:19;;;;;;;;;;;;;;;;;;5063409;28;1200;-80
2021/12/21 02:01:44;;;;;;;;;;;;;;;;;;5070243;28;2248;-79
2021/12/21 02:04:17;;;;;;;;;;;;;;;;;;5088825;28;1121;-79
2021/12/21 02:06:43;;;;;;;;;;;;;;;;;;5051466;28;1234;-80
2021/12/21 02:09:08;;;;;;;;;;;;;;;;;;5068316;28;1129;-80
2021/12/21 02:11:34;;;;;;;;;;;;;;;;;;5067443;28;1331;-81
2021/12/21 02:13:59;;;;;;;;;;;;;;;;;;5081600;28;1145;-79
2021/12/21 02:16:40;;;;;;;;;;;;;;;;;;5064708;28;1132;-80
2021/12/21 02:19:20;;;;;;;;;;;;;;;;;;5070908;28;1049;-79
2021/12/21 02:21:50;;;;;;;;;;;;;;;;;;5068269;28;1941;-80
2021/12/21 02:24:20;;;;;;;;;;;;;;;;;;5072012;28;1164;-79
2021/12/21 02:27:16;;;;;;;;;;;;;;;;;;5072026;28;1190;-80
2021/12/21 02:29:40;;;;;;;;;;;;;;;;;;5081287;28;1122;-80
2021/12/21 02:32:06;;;;;;;;;;;;;;;;;;5052151;28;1365;-80
2021/12/21 02:34:31;;;;;;;;;;;;;;;;;;5047310;28;1229;-80
2021/12/21 02:36:57;;;;;;;;;;;;;;;;;;5068291;28;1172;-79
2021/12/21 02:39:26;;;;;;;;;;;;;;;;;;5050095;28;1157;-79
2021/12/21 02:41:51;;;;;;;;;;;;;;;;;;5067720;28;1969;-79
2021/12/21 02:44:19;;;;;;;;;;;;;;;;;;5064280;28;1184;-80
2021/12/21 02:46:45;;;;;;;;;;;;;;;;;;5086955;28;1213;-80
2021/12/21 02:49:11;;;;;;;;;;;;;;;;;;5067208;28;1283;-80
2021/12/21 02:51:41;;;;;;;;;;;;;;;;;;5067338;28;1159;-80
2021/12/21 02:54:07;;;;;;;;;;;;;;;;;;5067535;28;1198;-79
2021/12/21 02:56:32;;;;;;;;;;;;;;;;;;5065940;28;1268;-80
2021/12/21 02:58:57;;;;;;;;;;;;;;;;;;5064060;28;1276;-80
2021/12/21 03:01:23;;;;;;;;;;;;;;;;;;5063898;28;1956;-79
2021/12/21 03:03:48;;;;;;;;;;;;;;;;;;5067881;28;1171;-80
2021/12/21 03:06:43;;;;;;;;;;;;;;;;;;5068079;28;1247;-80
2021/12/21 03:08:59;;;;;;;;;;;;;;;;;;5086432;28;1077;-80
2021/12/21 03:11:47;;;;;;;;;;;;;;;;;;5084347;28;1156;-80
2021/12/21 03:14:12;;;;;;;;;;;;;;;;;;5080798;28;1088;-80
2021/12/21 03:16:38;;;;;;;;;;;;;;;;;;5041837;28;1365;-80
2021/12/21 03:19:08;;;;;;;;;;;;;;;;;;5066590;28;1354;-80
2021/12/21 03:21:34;;;;;;;;;;;;;;;;;;5066796;28;1959;-79
2021/12/21 03:23:59;;;;;;;;;;;;;;;;;;5051538;28;1240;-80
2021/12/21 03:26:25;;;;;;;;;;;;;;;;;;5063677;28;1273;-80
2021/12/21 03:28:54;;;;;;;;;;;;;;;;;;5065862;28;1238;-81
2021/12/21 03:31:22;;;;;;;;;;;;;;;;;;5057448;28;1141;-80
2021/12/21 03:33:48;;;;;;;;;;;;;;;;;;5042382;28;1397;-80
2021/12/21 03:36:13;;;;;;;;;;;;;;;;;;5063925;28;1231;-80
2021/12/21 03:38:41;;;;;;;;;;;;;;;;;;5057230;28;1177;-80
2021/12/21 03:41:14;;;;;;;;;;;;;;;;;;5045543;28;1914;-80
2021/12/21 03:43:39;;;;;;;;;;;;;;;;;;5059573;28;1117;-81
2021/12/21 03:46:10;;;;;;;;;;;;;;;;;;5046932;28;1302;-80
2021/12/21 03:48:37;;;;;;;;;;;;;;;;;;5064028;28;1187;-81
2021/12/21 03:51:02;;;;;;;;;;;;;;;;;;5083981;28;1219;-80
2021/12/21 03:53:28;;;;;;;;;;;;;;;;;;5057994;28;1189;-79
2021/12/21 03:56:09;;;;;;;;;;;;;;;;;;5053956;28;1373;-80
2021/12/21 03:58:34;;;;;;;;;;;;;;;;;;5047879;28;1221;-80
2021/12/21 04:00:59;;;;;;;;;;;;;;;;;;5062027;28;1937;-80
2021/12/21 04:03:25;;;;;;;;;;;;;;;;;;5066631;28;1216;-80
2021/12/21 04:05:51;;;;;;;;;;;;;;;;;;5067870;28;1309;-79
2021/12/21 04:08:16;;;;;;;;;;;;;;;;;;5066609;28;1262;-81
2021/12/21 04:10:41;;;;;;;;;;;;;;;;;;5064133;28;1215;-79
2021/12/21 04:13:10;;;;;;;;;;;;;;;;;;5065611;28;1175;-80
2021/12/21 04:15:42;;;;;;;;;;;;;;;;;;5061905;28;1199;-80
2021/12/21 04:18:08;;;;;;;;;;;;;;;;;;5066671;28;1419;-81
2021/12/21 04:20:33;;;;;;;;;;;;;;;;;;5064176;28;1930;-80
2021/12/21 04:23:00;;;;;;;;;;;;;;;;;;5067056;28;1229;-80
2021/12/21 04:25:26;;;;;;;;;;;;;;;;;;5065670;28;1184;-83
2021/12/21 04:27:51;;;;;;;;;;;;;;;;;;5066856;28;1294;-80
2021/12/21 04:30:17;;;;;;;;;;;;;;;;;;5044215;28;1248;-80
2021/12/21 04:32:42;;;;;;;;;;;;;;;;;;5069278;28;1311;-80
2021/12/21 04:35:08;;;;;;;;;;;;;;;;;;5067989;28;1586;-80
2021/12/21 04:37:40;;;;;;;;;;;;;;;;;;5051886;28;1306;-80
2021/12/21 04:40:11;;;;;;;;;;;;;;;;;;5069263;28;1210;-80
2021/12/21 04:42:37;;;;;;;;;;;;;;;;;;5070201;28;1993;-80
2021/12/21 04:45:02;;;;;;;;;;;;;;;;;;5062257;28;1567;-80
2021/12/21 04:47:28;;;;;;;;;;;;;;;;;;5053246;28;1207;-79
2021/12/21 04:49:54;;;;;;;;;;;;;;;;;;5069334;28;1429;-81
2021/12/21 04:52:19;;;;;;;;;;;;;;;;;;5053473;28;1181;-80
2021/12/21 04:54:45;;;;;;;;;;;;;;;;;;5068053;28;1339;-80
2021/12/21 04:57:10;;;;;;;;;;;;;;;;;;5070799;28;1351;-80
2021/12/21 04:59:38;;;;;;;;;;;;;;;;;;5080908;28;1156;-80
2021/12/21 05:02:04;;;;;;;;;;;;;;;;;;5070428;28;1910;-80
2021/12/21 05:04:29;;;;;;;;;;;;;;;;;;5051769;28;1193;-79
2021/12/21 05:06:55;;;;;;;;;;;;;;;;;;5070758;28;1439;-81
2021/12/21 05:09:25;;;;;;;;;;;;;;;;;;5069039;28;1223;-79
2021/12/21 05:11:51;;;;;;;;;;;;;;;;;;5068770;28;1198;-79
2021/12/21 05:14:17;;;;;;;;;;;;;;;;;;5058211;28;1304;-80
2021/12/21 05:16:42;;;;;;;;;;;;;;;;;;5064848;28;1306;-80
2021/12/21 05:19:07;;;;;;;;;;;;;;;;;;5086263;28;1175;-79
2021/12/21 05:21:33;;;;;;;;;;;;;;;;;;5069307;28;1976;-80
2021/12/21 05:23:58;;;;;;;;;;;;;;;;;;5069473;28;1174;-80
2021/12/21 05:26:24;;;;;;;;;;;;;;;;;;5069123;28;1235;-80
2021/12/21 05:28:49;;;;;;;;;;;;;;;;;;5050059;28;1288;-80
2021/12/21 05:31:16;;;;;;;;;;;;;;;;;;5082971;28;1299;-80
2021/12/21 05:33:42;;;;;;;;;;;;;;;;;;5081378;28;1227;-81
2021/12/21 05:36:07;;;;;;;;;;;;;;;;;;5048204;28;1201;-80
2021/12/21 05:38:33;;;;;;;;;;;;;;;;;;5049690;28;1242;-80
2021/12/21 05:41:01;;;;;;;;;;;;;;;;;;5068872;28;1954;-80
2021/12/21 05:43:27;;;;;;;;;;;;;;;;;;5030762;28;1327;-80
2021/12/21 05:45:53;;;;;;;;;;;;;;;;;;5024414;28;1196;-79
2021/12/21 05:48:19;;;;;;;;;;;;;;;;;;5043209;28;1230;-80
2021/12/21 05:50:46;;;;;;;;;;;;;;;;;;5045322;28;1211;-81
2021/12/21 05:53:11;;;;;;;;;;;;;;;;;;5033798;28;1168;-81
2021/12/21 05:55:36;;;;;;;;;;;;;;;;;;5035246;28;1196;-81
2021/12/21 05:58:11;;;;;;;;;;;;;;;;;;5030849;28;1216;-81
2021/12/21 06:00:38;;;;;;;;;;;;;;;;;;5044662;28;1957;-80
2021/12/21 06:03:04;;;;;;;;;;;;;;;;;;5029402;28;1192;-80
2021/12/21 06:05:29;;;;;;;;;;;;;;;;;;5032365;28;1264;-82
2021/12/21 06:07:55;;;;;;;;;;;;;;;;;;5047366;28;1215;-81
2021/12/21 06:10:32;;;;;;;;;;;;;;;;;;5066187;28;1133;-81
2021/12/21 06:26:32;;;;;;;;;;;;;;;;;;5050991;28;1128;-81
2021/12/21 06:28:58;;;;;;;;;;;;;;;;;;5046308;28;1376;-82
2021/12/21 06:31:23;;;;;;;;;;;;;;;;;;5062855;28;1204;-82
2021/12/21 06:33:49;;;;;;;;;;;;;;;;;;5037127;28;1342;-79
2021/12/21 06:36:15;;;;;;;;;;;;;;;;;;5067284;28;1140;-83
2021/12/21 06:38:40;;;;;;;;;;;;;;;;;;5068358;28;1335;-81
2021/12/21 06:41:06;;;;;;;;;;;;;;;;;;5051216;28;1906;-82
2021/12/21 06:43:33;;;;;;;;;;;;;;;;;;5065694;28;1172;-82
2021/12/21 06:46:30;;;;;;;;;;;;;;;;;;5083472;28;1145;-82
2021/12/21 06:51:51;;;;;;;;;;;;;;;;;;5069798;28;1398;-81
2021/12/21 06:54:17;;;;;;;;;;;;;;;;;;5085028;28;1116;-83
2021/12/21 06:56:46;;;;;;;;;;;;;;;;;;5065285;28;1455;-84
2021/12/21 06:59:11;;;;;;;;;;;;;;;;;;5065788;28;1161;-81
2021/12/21 07:01:38;;;;;;;;;;;;;;;;;;5081122;28;1877;-81
2021/12/21 07:04:05;;;;;;;;;;;;;;;;;;5066223;28;1358;-82
2021/12/21 07:06:32;;;;;;;;;;;;;;;;;;5047945;28;1322;-81
2021/12/21 07:09:06;;;;;;;;;;;;;;;;;;5065637;28;1299;-81
2021/12/21 07:19:29;;;;;;;;;;;;;;;;;;5070487;28;994;-82
2021/12/21 07:21:55;;;;;;;;;;;;;;;;;;5083952;28;1911;-80
2021/12/21 07:24:21;;;;;;;;;;;;;;;;;;5066339;28;1301;-80
2021/12/21 07:26:49;;;;;;;;;;;;;;;;;;5065557;28;1173;-80
2021/12/21 07:29:14;;;;;;;;;;;;;;;;;;5065471;28;1294;-81
2021/12/21 07:31:40;;;;;;;;;;;;;;;;;;5069595;28;1252;-81
2021/12/21 07:34:05;;;;;;;;;;;;;;;;;;5046295;28;1264;-82
2021/12/21 07:36:32;;;;;;;;;;;;;;;;;;5050861;28;1226;-82
2021/12/21 07:38:58;;;;;;;;;;;;;;;;;;5067509;28;1112;-81
2021/12/21 07:41:24;;;;;;;;;;;;;;;;;;5066683;28;1955;-81
2021/12/21 07:43:49;;;;;;;;;;;;;;;;;;5065161;28;1224;-80
2021/12/21 07:46:18;;;;;;;;;;;;;;;;;;5047749;28;1402;-81
2021/12/21 07:48:47;;;;;;;;;;;;;;;;;;5050535;28;1271;-80
2021/12/21 07:51:13;;;;;;;;;;;;;;;;;;5067334;28;1141;-82
2021/12/21 07:53:42;;;;;;;;;;;;;;;;;;5032912;28;1292;-81
2021/12/21 07:56:08;;;;;;;;;;;;;;;;;;5048313;28;1117;-82
2021/12/21 07:58:34;;;;;;;;;;;;;;;;;;5050897;28;1272;-81
2021/12/21 08:01:00;;;;;;;;;;;;;;;;;;5064676;28;2281;-80
2021/12/21 08:03:25;;;;;;;;;;;;;;;;;;5065099;28;1352;-81
2021/12/21 08:05:54;;;;;;;;;;;;;;;;;;5066987;28;1337;-81
2021/12/21 08:08:22;;;;;;;;;;;;;;;;;;5059464;28;1208;-81
2021/12/21 08:11:08;;;;;;;;;;;;;;;;;;5088913;28;1172;-82
2021/12/21 08:13:33;;;;;;;;;;;;;;;;;;5072647;28;1318;-82
2021/12/21 08:15:58;;;;;;;;;;;;;;;;;;5072227;28;1079;-81
2021/12/21 08:18:24;;;;;;;;;;;;;;;;;;5051721;28;1274;-83
2021/12/21 08:20:49;;;;;;;;;;;;;;;;;;5070007;28;1949;-80
2021/12/21 08:23:15;;;;;;;;;;;;;;;;;;5073464;28;1388;-80
2021/12/21 08:25:40;;;;;;;;;;;;;;;;;;5073557;28;1225;-81
2021/12/21 08:28:06;;;;;;;;;;;;;;;;;;5069738;28;1188;-82
2021/12/21 08:30:32;;;;;;;;;;;;;;;;;;5071307;28;1175;-82
2021/12/21 08:32:57;;;;;;;;;;;;;;;;;;5089038;28;1176;-82
2021/12/21 08:35:23;;;;;;;;;;;;;;;;;;5085458;28;1366;-82
2021/12/21 08:37:59;;;;;;;;;;;;;;;;;;5066136;28;1248;-81
2021/12/21 08:40:24;;;;;;;;;;;;;;;;;;5073483;28;983;-80
2021/12/21 08:42:52;;;;;;;;;;;;;;;;;;5060197;28;1906;-81
2021/12/21 08:45:18;;;;;;;;;;;;;;;;;;5050736;28;1342;-81
2021/12/21 08:47:44;;;;;;;;;;;;;;;;;;5075346;28;1124;-78
2021/12/21 08:50:10;;;;;;;;;;;;;;;;;;5061529;28;1201;-81
2021/12/21 08:52:36;;;;;;;;;;;;;;;;;;5075372;28;1234;-81
2021/12/21 08:55:05;;;;;;;;;;;;;;;;;;5061372;28;1240;-80
2021/12/21 08:57:36;;;;;;;;;;;;;;;;;;5072985;28;1456;-81
2021/12/21 09:00:01;;;;;;;;;;;;;;;;;;5066280;28;1332;-81
2021/12/21 09:02:31;;;;;;;;;;;;;;;;;;5050932;28;1957;-79
2021/12/21 09:04:57;;;;;;;;;;;;;;;;;;5045420;28;1331;-80
2021/12/21 09:07:22;;;;;;;;;;;;;;;;;;5049278;28;1177;-80
2021/12/21 09:09:47;;;;;;;;;;;;;;;;;;5049864;28;1398;-81
2021/12/21 09:12:12;;;;;;;;;;;;;;;;;;5035686;28;1141;-81
2021/12/21 09:14:38;;;;;;;;;;;;;;;;;;5068424;28;1205;-80
2021/12/21 09:17:07;;;;;;;;;;;;;;;;;;5049625;28;1318;-81
2021/12/21 09:19:32;;;;;;;;;;;;;;;;;;5065589;28;1178;-81
2021/12/21 09:21:58;;;;;;;;;;;;;;;;;;5055871;28;1898;-81
2021/12/21 09:24:23;;;;;;;;;;;;;;;;;;5057349;28;1308;-81
2021/12/21 09:26:48;;;;;;;;;;;;;;;;;;5037236;28;1287;-80
2021/12/21 09:29:13;;;;;;;;;;;;;;;;;;5035669;28;1196;-80
2021/12/21 09:31:39;;;;;;;;;;;;;;;;;;5033187;28;1173;-80
2021/12/21 09:34:04;;;;;;;;;;;;;;;;;;5032443;28;1347;-80
2021/12/21 09:36:30;;;;;;;;;;;;;;;;;;5068740;28;1141;-80
2021/12/21 09:38:59;;;;;;;;;;;;;;;;;;5068675;28;1348;-80
2021/12/21 09:41:27;;;;;;;;;;;;;;;;;;5069084;28;1894;-80
2021/12/21 09:43:52;;;;;;;;;;;;;;;;;;5067213;28;1278;-80
2021/12/21 09:46:18;;;;;;;;;;;;;;;;;;5067601;28;1167;-80
2021/12/21 09:48:44;;;;;;;;;;;;;;;;;;5056597;28;1180;-79
2021/12/21 09:51:09;;;;;;;;;;;;;;;;;;5085783;28;1078;-79
2021/12/21 09:53:35;;;;;;;;;;;;;;;;;;5052384;28;1305;-79
2021/12/21 09:56:01;;;;;;;;;;;;;;;;;;5067874;28;1188;-78
2021/12/21 09:58:26;;;;;;;;;;;;;;;;;;5087637;28;1362;-79
2021/12/21 10:00:51;;;;;;;;;;;;;;;;;;5050628;28;1889;-79
2021/12/21 10:03:17;;;;;;;;;;;;;;;;;;5064699;28;1333;-79
2021/12/21 10:05:43;;;;;;;;;;;;;;;;;;5051596;28;1368;-79
2021/12/21 10:08:13;;;;;;;;;;;;;;;;;;5066248;28;1065;-79
2021/12/21 10:10:42;;;;;;;;;;;;;;;;;;5068136;28;1160;-80
2021/12/21 10:13:12;;;;;;;;;;;;;;;;;;5066304;28;1220;-79
2021/12/21 10:15:43;;;;;;;;;;;;;;;;;;5066873;28;1136;-80
2021/12/21 10:18:08;;;;;;;;;;;;;;;;;;5083309;28;1092;-75
2021/12/21 10:20:38;;;;;;;;;;;;;;;;;;5068707;28;1283;-79
2021/12/21 10:23:07;;;;;;;;;;;;;;;;;;5090593;28;1945;-79
2021/12/21 10:25:38;;;;;;;;;;;;;;;;;;5068624;28;1203;-80
2021/12/21 10:28:04;;;;;;;;;;;;;;;;;;5083660;28;1157;-80
2021/12/21 10:30:29;;;;;;;;;;;;;;;;;;5049369;28;1219;-82
2021/12/21 10:32:55;;;;;;;;;;;;;;;;;;5052054;28;1332;-80
2021/12/21 10:35:28;;;;;;;;;;;;;;;;;;5082079;28;1200;-79
2021/12/21 10:37:54;;;;;;;;;;;;;;;;;;5071508;28;1122;-80
2021/12/21 10:40:25;;;;;;;;;;;;;;;;;;5084248;28;1033;-80
2021/12/21 10:43:01;;;;;;;;;;;;;;;;;;5086805;28;1906;-80
2021/12/21 10:45:29;;;;;;;;;;;;;;;;;;5059201;28;1216;-80
2021/12/21 10:47:54;;;;;;;;;;;;;;;;;;5047443;28;1321;-80
2021/12/21 10:50:20;;;;;;;;;;;;;;;;;;5079773;28;1327;-81
2021/12/21 10:52:57;;;;;;;;;;;;;;;;;;5031139;28;1162;-80
2021/12/21 10:55:27;;;;;;;;;;;;;;;;;;5073084;28;1184;-80
2021/12/21 10:57:59;;;;;;;;;;;;;;;;;;5060721;28;1303;-79
2021/12/21 11:00:25;;;;;;;;;;;;;;;;;;5064008;28;1284;-80
2021/12/21 11:02:53;;;;;;;;;;;;;;;;;;5066751;28;1957;-80
2021/12/21 11:05:20;;;;;;;;;;;;;;;;;;5084930;28;1053;-79
2021/12/21 11:07:50;;;;;;;;;;;;;;;;;;5068606;28;1096;-78
2021/12/21 11:10:25;;;;;;;;;;;;;;;;;;5033505;28;1255;-79
2021/12/21 11:12:52;;;;;;;;;;;;;;;;;;5066680;28;1177;-79
2021/12/21 11:15:19;;;;;;;;;;;;;;;;;;5044084;28;1226;-78
2021/12/21 11:17:48;;;;;;;;;;;;;;;;;;5065591;28;1256;-79
2021/12/21 11:20:14;;;;;;;;;;;;;;;;;;5066068;28;1292;-80
2021/12/21 11:22:42;;;;;;;;;;;;;;;;;;5083680;28;1893;-79
2021/12/21 11:25:10;;;;;;;;;;;;;;;;;;5078873;28;1181;-80
2021/12/21 11:27:36;;;;;;;;;;;;;;;;;;5048305;28;1189;-79
2021/12/21 11:30:08;;;;;;;;;;;;;;;;;;5048808;28;1267;-79
2021/12/21 11:32:38;;;;;;;;;;;;;;;;;;5062511;28;1342;-78
2021/12/21 11:37:39;;;;;;;;;;;;;;;;;;5051453;28;1133;-79
2021/12/21 11:40:07;;;;;;;;;;;;;;;;;;5054881;28;1178;-79
2021/12/21 11:42:38;;;;;;;;;;;;;;;;;;5063456;28;1902;-80
2021/12/21 11:45:03;;;;;;;;;;;;;;;;;;5049370;28;1156;-80
2021/12/21 11:47:35;;;;;;;;;;;;;;;;;;5067771;28;1136;-80
2021/12/21 11:50:02;;;;;;;;;;;;;;;;;;5052747;28;1312;-78
2021/12/21 11:52:28;;;;;;;;;;;;;;;;;;5078212;28;1085;-80
2021/12/21 11:54:55;;;;;;;;;;;;;;;;;;5092538;28;1175;-80
2021/12/21 11:57:32;;;;;;;;;;;;;;;;;;5072729;28;1200;-80
2021/12/21 12:00:05;;;;;;;;;;;;;;;;;;5057434;28;1228;-79
2021/12/21 12:02:32;;;;;;;;;;;;;;;;;;5068481;28;1883;-79
2021/12/21 12:04:57;;;;;;;;;;;;;;;;;;5072585;28;1133;-79
2021/12/21 12:07:25;;;;;;;;;;;;;;;;;;5070232;28;1299;-79
2021/12/21 12:10:09;;;;;;;;;;;;;;;;;;5054707;28;1251;-79
2021/12/21 12:12:34;;;;;;;;;;;;;;;;;;5069376;28;1215;-79
2021/12/21 12:15:01;;;;;;;;;;;;;;;;;;5077176;28;1149;-79
2021/12/21 12:17:27;;;;;;;;;;;;;;;;;;5052956;28;1243;-79
2021/12/21 12:19:53;;;;;;;;;;;;;;;;;;5047871;28;1180;-78
2021/12/21 12:22:19;;;;;;;;;;;;;;;;;;5070561;28;1893;-79
2021/12/21 12:24:45;;;;;;;;;;;;;;;;;;5055036;28;1170;-79
2021/12/21 12:27:21;;;;;;;;;;;;;;;;;;5088842;28;1101;-79
2021/12/21 12:29:50;;;;;;;;;;;;;;;;;;5056789;28;1297;-79
2021/12/21 12:32:17;;;;;;;;;;;;;;;;;;5047152;28;1155;-80
2021/12/21 12:34:43;;;;;;;;;;;;;;;;;;5067011;28;1200;-79
2021/12/21 12:37:18;;;;;;;;;;;;;;;;;;5047129;28;1200;-79
2021/12/21 12:39:45;;;;;;;;;;;;;;;;;;5066782;28;1138;-80
2021/12/21 12:42:22;;;;;;;;;;;;;;;;;;5050207;28;1922;-80
2021/12/21 12:44:56;;;;;;;;;;;;;;;;;;5052904;28;1089;-80
2021/12/21 12:47:25;;;;;;;;;;;;;;;;;;5071334;28;1200;-79
2021/12/21 12:49:52;;;;;;;;;;;;;;;;;;5067767;28;1149;-79
2021/12/21 12:52:27;;;;;;;;;;;;;;;;;;5069394;28;1149;-79
2021/12/21 12:54:54;;;;;;;;;;;;;;;;;;5059752;28;1291;-80
2021/12/21 12:57:39;;;;;;;;;;;;;;;;;;5058647;28;1236;-80
2021/12/21 13:00:07;;;;;;;;;;;;;;;;;;5048465;28;1197;-80
2021/12/21 13:02:33;;;;;;;;;;;;;;;;;;5047585;28;1902;-80
2021/12/21 13:05:03;;;;;;;;;;;;;;;;;;5051337;28;1148;-81
2021/12/21 13:07:29;;;;;;;;;;;;;;;;;;5049987;28;1407;-81
2021/12/21 13:10:05;;;;;;;;;;;;;;;;;;5050951;28;1238;-81
2021/12/21 13:12:31;;;;;;;;;;;;;;;;;;5048001;28;1210;-84
2021/12/21 13:14:56;;;;;;;;;;;;;;;;;;5032500;28;1161;-80
2021/12/21 13:17:22;;;;;;;;;;;;;;;;;;5047096;28;1461;-81
2021/12/21 13:19:47;;;;;;;;;;;;;;;;;;5069577;28;1055;-81
2021/12/21 13:22:12;;;;;;;;;;;;;;;;;;5050539;28;1885;-81
2021/12/21 13:24:42;;;;;;;;;;;;;;;;;;5049271;28;1253;-81
2021/12/21 13:27:11;;;;;;;;;;;;;;;;;;5035039;28;1280;-80
2021/12/21 13:29:42;;;;;;;;;;;;;;;;;;5049925;28;1363;-82
2021/12/21 13:32:11;;;;;;;;;;;;;;;;;;5070151;28;1341;-79
2021/12/21 13:34:39;;;;;;;;;;;;;;;;;;5087047;28;1121;-78
2021/12/21 13:37:08;;;;;;;;;;;;;;;;;;5070998;28;1285;-80
2021/12/21 13:39:37;;;;;;;;;;;;;;;;;;5070116;28;1397;-81
2021/12/21 13:42:03;;;;;;;;;;;;;;;;;;5070918;28;1889;-82
2021/12/21 13:44:33;;;;;;;;;;;;;;;;;;5069272;28;1375;-82
2021/12/21 13:47:01;;;;;;;;;;;;;;;;;;5088600;28;1012;-79
2021/12/21 13:49:27;;;;;;;;;;;;;;;;;;5067371;28;1119;-80
2021/12/21 13:51:54;;;;;;;;;;;;;;;;;;5070110;28;1188;-79
2021/12/21 13:54:28;;;;;;;;;;;;;;;;;;5086938;28;787;-80
2021/12/21 13:56:54;;;;;;;;;;;;;;;;;;5070539;28;798;-79
2021/12/21 13:59:24;;;;;;;;;;;;;;;;;;5068306;28;1180;-84
2021/12/21 14:01:54;;;;;;;;;;;;;;;;;;5063338;28;1896;-79
2021/12/21 14:04:39;;;;;;;;;;;;;;;;;;5064284;28;1276;-78
2021/12/21 14:07:05;;;;;;;;;;;;;;;;;;5078354;28;1104;-78
2021/12/21 14:09:30;;;;;;;;;;;;;;;;;;5054663;28;1283;-79
2021/12/21 14:11:58;;;;;;;;;;;;;;;;;;5049452;28;1186;-78
2021/12/21 14:14:25;;;;;;;;;;;;;;;;;;5046863;28;1247;-79
2021/12/21 14:16:52;;;;;;;;;;;;;;;;;;5032990;28;1212;-78
2021/12/21 14:19:19;;;;;;;;;;;;;;;;;;5046141;28;1187;-79
2021/12/21 14:21:45;;;;;;;;;;;;;;;;;;5048366;28;1898;-79
2021/12/21 14:24:12;;;;;;;;;;;;;;;;;;5051558;28;1383;-79
2021/12/21 14:26:52;;;;;;;;;;;;;;;;;;5063601;28;1298;-78
2021/12/21 14:29:22;;;;;;;;;;;;;;;;;;5066308;28;1395;-77
2021/12/21 14:32:53;;;;;;;;;;;;;;;;;;5066821;28;1192;-78
2021/12/21 14:34:40;;;;;;;;;;;;;;;;;;5074320;28;1361;-78
2021/12/21 14:37:07;;;;;;;;;;;;;;;;;;5054380;28;1208;-77
2021/12/21 14:39:33;;;;;;;;;;;;;;;;;;5066756;28;1270;-78
2021/12/21 14:42:00;;;;;;;;;;;;;;;;;;5065409;28;1910;-85
2021/12/21 14:44:29;;;;;;;;;;;;;;;;;;5073206;28;1152;-79
2021/12/21 14:47:09;;;;;;;;;;;;;;;;;;5081963;28;1132;-78
2021/12/21 14:49:35;;;;;;;;;;;;;;;;;;5064981;28;1312;-79
2021/12/21 14:52:08;;;;;;;;;;;;;;;;;;5076646;28;1145;-85
2021/12/21 14:54:58;;;;;;;;;;;;;;;;;;5062127;28;1277;-88
2021/12/21 14:57:33;;;;;;;;;;;;;;;;;;5074412;28;1226;-88
2021/12/21 15:00:00;;;;;;;;;;;;;;;;;;5069641;28;1196;-87
2021/12/21 15:03:12;;;;;;;;;;;;;;;;;;5058597;28;1965;-89
2021/12/21 15:05:14;;;;;;;;;;;;;;;;;;5060382;28;1256;-88
2021/12/21 15:07:39;;;;;;;;;;;;;;;;;;5054304;28;1345;-86
2021/12/21 15:10:06;;;;;;;;;;;;;;;;;;5047820;28;1201;-88
2021/12/21 15:12:32;;;;;;;;;;;;;;;;;;5059218;28;1208;-88
2021/12/21 15:14:58;;;;;;;;;;;;;;;;;;5057546;28;1189;-87
2021/12/21 15:17:23;;;;;;;;;;;;;;;;;;5064771;28;1176;-88
2021/12/21 15:19:49;;;;;;;;;;;;;;;;;;5050162;28;1266;-86
2021/12/21 15:22:14;;;;;;;;;;;;;;;;;;5064894;28;1935;-86
2021/12/21 15:24:39;;;;;;;;;;;;;;;;;;5061844;28;1177;-87
2021/12/21 15:27:08;;;;;;;;;;;;;;;;;;5081313;28;1200;-86
2021/12/21 15:29:34;;;;;;;;;;;;;;;;;;5072294;28;1148;-85
2021/12/21 15:32:04;;;;;;;;;;;;;;;;;;5084968;28;1253;-86
2021/12/21 15:34:40;;;;;;;;;;;;;;;;;;5070865;28;1345;-86
2021/12/21 15:37:05;;;;;;;;;;;;;;;;;;5059972;28;1252;-86
2021/12/21 15:39:34;;;;;;;;;;;;;;;;;;5060780;28;1312;-87
2021/12/21 15:42:04;;;;;;;;;;;;;;;;;;5065958;28;1923;-86
2021/12/21 15:44:36;;;;;;;;;;;;;;;;;;5085396;28;1226;-86
2021/12/21 15:47:03;;;;;;;;;;;;;;;;;;5078255;28;1170;-87
2021/12/21 15:49:36;;;;;;;;;;;;;;;;;;5055488;28;1300;-87
2021/12/21 15:52:02;;;;;;;;;;;;;;;;;;5056306;28;1296;-86
2021/12/21 15:54:27;;;;;;;;;;;;;;;;;;5073160;28;1220;-87
2021/12/21 15:56:53;;;;;;;;;;;;;;;;;;5060434;28;1232;-86
2021/12/21 15:59:19;;;;;;;;;;;;;;;;;;5073831;28;1209;-86
2021/12/21 16:01:44;;;;;;;;;;;;;;;;;;5061737;28;1890;-87
2021/12/21 16:04:10;;;;;;;;;;;;;;;;;;5055838;28;1265;-86
2021/12/21 16:06:36;;;;;;;;;;;;;;;;;;5074762;28;1201;-87
2021/12/21 16:09:01;;;;;;;;;;;;;;;;;;5058890;28;1220;-85
2021/12/21 16:11:45;;;;;;;;;;;;;;;;;;;;;
2021/12/21 16:14:11;;;;;;;;;;;;;;;;;;5062048;28;1096;-87
2021/12/21 16:16:38;;;;;;;;;;;;;;;;;;5068609;28;1395;-87
2021/12/21 16:19:04;;;;;;;;;;;;;;;;;;5063874;28;1286;-87
2021/12/21 16:21:29;;;;;;;;;;;;;;;;;;5072868;28;1874;-88
2021/12/21 16:23:55;;;;;;;;;;;;;;;;;;5052114;28;1195;-87
2021/12/21 16:26:20;;;;;;;;;;;;;;;;;;5059227;28;1310;-88
2021/12/21 16:28:46;;;;;;;;;;;;;;;;;;5096468;28;998;-88
2021/12/21 16:31:16;;;;;;;;;;;;;;;;;;5077729;28;1239;-89
2021/12/21 16:33:42;;;;;;;;;;;;;;;;;;5059526;28;1252;-88
2021/12/21 16:36:07;;;;;;;;;;;;;;;;;;5074913;28;1379;-88
2021/12/21 16:38:33;;;;;;;;;;;;;;;;;;5077364;28;1261;-88
2021/12/21 16:40:58;;;;;;;;;;;;;;;;;;5061080;28;1918;-87
2021/12/21 16:43:29;;;;;;;;;;;;;;;;;;5060370;28;1284;-87
2021/12/21 16:45:55;;;;;;;;;;;;;;;;;;5063614;28;1285;-87
2021/12/21 16:48:24;;;;;;;;;;;;;;;;;;5075724;28;1290;-87
2021/12/21 16:50:49;;;;;;;;;;;;;;;;;;5058777;28;1302;-87
2021/12/21 16:53:14;;;;;;;;;;;;;;;;;;5058961;28;1200;-87
2021/12/21 16:55:40;;;;;;;;;;;;;;;;;;5076594;28;1235;-88
2021/12/21 16:58:06;;;;;;;;;;;;;;;;;;5074986;28;1137;-88
2021/12/21 17:00:31;;;;;;;;;;;;;;;;;;5072774;28;1157;-83
2021/12/21 17:02:56;;;;;;;;;;;;;;;;;;5069702;28;1898;-83
2021/12/21 17:05:22;;;;;;;;;;;;;;;;;;5069315;28;1222;-84
2021/12/21 17:07:50;;;;;;;;;;;;;;;;;;5053558;28;1168;-84
2021/12/21 17:10:16;;;;;;;;;;;;;;;;;;5071707;28;1176;-83
2021/12/21 17:12:44;;;;;;;;;;;;;;;;;;5067481;28;1178;-84
2021/12/21 17:15:11;;;;;;;;;;;;;;;;;;5073100;28;1175;-84
2021/12/21 17:17:42;;;;;;;;;;;;;;;;;;5066255;28;1151;-83
2021/12/21 17:20:08;;;;;;;;;;;;;;;;;;5070193;28;1210;-83
2021/12/21 17:22:34;;;;;;;;;;;;;;;;;;5091060;28;1894;-83
2021/12/21 17:24:59;;;;;;;;;;;;;;;;;;5053771;28;1204;-83
2021/12/21 17:27:24;;;;;;;;;;;;;;;;;;5072641;28;1192;-82
2021/12/21 17:29:53;;;;;;;;;;;;;;;;;;5071095;28;1345;-83
2021/12/21 17:32:18;;;;;;;;;;;;;;;;;;5092834;28;1153;-82
2021/12/21 17:34:47;;;;;;;;;;;;;;;;;;5069654;28;1243;-82
2021/12/21 17:37:13;;;;;;;;;;;;;;;;;;5071409;28;1248;-83
2021/12/21 17:39:38;;;;;;;;;;;;;;;;;;5055667;28;1362;-84
2021/12/21 17:42:03;;;;;;;;;;;;;;;;;;5067975;28;1926;-82
2021/12/21 17:44:29;;;;;;;;;;;;;;;;;;5054378;28;1327;-82
2021/12/21 17:46:54;;;;;;;;;;;;;;;;;;5068452;28;1189;-82
2021/12/21 17:49:19;;;;;;;;;;;;;;;;;;5088512;28;1042;-79
2021/12/21 17:51:44;;;;;;;;;;;;;;;;;;5052338;28;1295;-79
2021/12/21 17:54:10;;;;;;;;;;;;;;;;;;5053402;28;1303;-81
2021/12/21 17:56:35;;;;;;;;;;;;;;;;;;5087559;28;1172;-80
2021/12/21 17:59:01;;;;;;;;;;;;;;;;;;5086439;28;1204;-80
2021/12/21 18:01:26;;;;;;;;;;;;;;;;;;5053182;28;1897;-79
2021/12/21 18:03:52;;;;;;;;;;;;;;;;;;5068037;28;1319;-79
2021/12/21 18:06:20;;;;;;;;;;;;;;;;;;5069740;28;1251;-80
2021/12/21 18:09:04;;;;;;;;;;;;;;;;;;5068815;28;1173;-82